Prudentia — PB4900 — position and weather

sailwx.info

Track history (hours):
 
Tides and Currents Weather Stations Pressure Air Temp Water Temp Dewpoint Dewpoint Depression Visibility Wind Speed Wind Dir Waves Ship Positions

Prudentia

Last reported at 2014-Jul-25 12:31 UTC. Time now 2014-Jul-29 20:55 UTC.
Position N 51°51' E 005°51'.

Length 70 m; draft 1.8 m.

Type: Ship. MMSI: 244660779.

Date/timePositionNaut miles runAvg speedWind from/ knotsBaromVisibWave heightAir tempDewpointWater temp
2014-Jul-25 12:31N 51°51' E 005°51'7 3.4
2014-Jul-25 10:32N 51°57' E 005°58'6 4.2
2014-Jul-25 09:08N 52°00' E 006°05'7 4.1
2014-Jul-25 07:26N 52°06' E 006°12'4 0.3
2014-Jul-24 19:24N 52°10' E 006°14'5 6.1
2014-Jul-24 18:32N 52°10' E 006°23'10 7.0
2014-Jul-24 17:04N 52°14' E 006°38'2 3.5
2014-Jul-24 16:32N 52°15' E 006°41'5 4.7
2014-Jul-24 15:33N 52°15' E 006°49'2 0.1
2014-Jul-23 12:07N 52°13' E 006°51'2 0.1
2014-Jul-22 19:33N 52°15' E 006°49'0 0.5
2014-Jul-22 18:33N 52°15' E 006°48'0 0.4
2014-Jul-22 17:33N 52°15' E 006°47'4 4.0
2014-Jul-22 16:32N 52°15' E 006°41'2 1.9
2014-Jul-22 15:33N 52°14' E 006°38'5 5.4
2014-Jul-22 14:32N 52°12' E 006°30'6 5.6
2014-Jul-22 13:33N 52°10' E 006°21'20 3.9
2014-Jul-22 08:32N 51°57' E 005°57'4 3.6
2014-Jul-22 07:33N 51°58' E 005°52'9 4.3
2014-Jul-22 05:33N 51°57' E 005°38'5 5.2
2014-Jul-22 04:33N 51°59' E 005°30'3 3.4
2014-Jul-22 03:33N 51°59' E 005°25'0 0.0
2014-Jul-22 02:33N 51°59' E 005°25'0 0.0
2014-Jul-22 01:33N 51°59' E 005°25'0 0.0
2014-Jul-22 00:33N 51°59' E 005°25'0 0.0
2014-Jul-21 23:33N 51°59' E 005°25'0 0.0
2014-Jul-21 22:33N 51°59' E 005°25'0 0.0
2014-Jul-21 21:33N 51°59' E 005°25'0 0.0
2014-Jul-21 20:33N 51°59' E 005°25'0 0.0
2014-Jul-21 20:18N 51°59' E 005°25'0 0.0
2014-Jul-21 19:33N 51°59' E 005°25'1 1.1
2014-Jul-21 18:33N 51°58' E 005°23'5 4.6
2014-Jul-21 17:33N 51°58' E 005°16'4 4.4
2014-Jul-21 16:33N 51°59' E 005°09'3 3.0
2014-Jul-21 15:33N 51°60' E 005°04'5 5.4
2014-Jul-21 14:33N 51°57' E 004°56'6 5.9
2014-Jul-21 13:33N 51°55' E 004°47'6 6.2
2014-Jul-21 12:33N 51°53' E 004°38'6 6.4
2014-Jul-21 11:33N 51°54' E 004°27'6 5.6
2014-Jul-21 10:33N 51°52' E 004°19'7 7.4
2014-Jul-21 09:33N 51°56' E 004°09'2 1.7
2014-Jul-21 08:33N 51°57' E 004°07'0 0.0
2014-Jul-21 07:33N 51°57' E 004°07'0 0.0
2014-Jul-21 06:33N 51°57' E 004°07'0 0.0
2014-Jul-21 05:33N 51°57' E 004°07'0 0.2
2014-Jul-21 04:33N 51°57' E 004°07'0 0.0
2014-Jul-21 03:33N 51°57' E 004°07'0 0.0
2014-Jul-21 02:33N 51°57' E 004°07'0 0.0
2014-Jul-21 01:33N 51°57' E 004°07'0 0.0
2014-Jul-21 00:33N 51°57' E 004°07'0 0.0
2014-Jul-20 23:33N 51°57' E 004°07'0 0.0
2014-Jul-20 22:33N 51°57' E 004°07'0 0.0
2014-Jul-20 21:33N 51°57' E 004°07'0 0.0
2014-Jul-20 20:33N 51°57' E 004°07'0 0.0
2014-Jul-20 19:33N 51°57' E 004°07'0 0.0
2014-Jul-20 18:33N 51°57' E 004°07'0 0.0
2014-Jul-20 17:33N 51°57' E 004°07'0 0.0
2014-Jul-20 16:33N 51°57' E 004°07'2 1.6
2014-Jul-20 15:33N 51°56' E 004°09'5 5.0
2014-Jul-20 14:33N 51°52' E 004°15'9 9.3
2014-Jul-20 13:33N 51°50' E 004°29'8 8.2
2014-Jul-20 12:33N 51°49' E 004°42'7 7.4
2014-Jul-20 11:33N 51°50' E 004°54'8 8.0
2014-Jul-20 10:33N 51°49' E 005°07'8 8.3
2014-Jul-20 09:33N 51°48' E 005°21'8 8.2
2014-Jul-20 08:33N 51°53' E 005°31'9 8.7
2014-Jul-20 07:31N 51°53' E 005°46'  
Track history (hours):
 
Tides and Currents Weather Stations Pressure Air Temp Water Temp Dewpoint Dewpoint Depression Visibility Wind Speed Wind Dir Waves Ship Positions

Prudentia

Last reported at 2014-Jul-25 12:31 UTC. Time now 2014-Jul-29 20:55 UTC.
Position N 51°51' E 005°51'.

Length 70 m; draft 1.8 m.

Type: Ship. MMSI: 244660779.

Date/timePositionNaut miles runAvg speedWind from/ knotsBaromVisibWave heightAir tempDewpointWater temp
2014-Jul-25 12:31N 51°51' E 005°51'7 3.4
2014-Jul-25 10:32N 51°57' E 005°58'6 4.2
2014-Jul-25 09:08N 52°00' E 006°05'7 4.1
2014-Jul-25 07:26N 52°06' E 006°12'4 0.3
2014-Jul-24 19:24N 52°10' E 006°14'5 6.1
2014-Jul-24 18:32N 52°10' E 006°23'10 7.0
2014-Jul-24 17:04N 52°14' E 006°38'2 3.5
2014-Jul-24 16:32N 52°15' E 006°41'5 4.7
2014-Jul-24 15:33N 52°15' E 006°49'2 0.1
2014-Jul-23 12:07N 52°13' E 006°51'2 0.1
2014-Jul-22 19:33N 52°15' E 006°49'0 0.5
2014-Jul-22 18:33N 52°15' E 006°48'0 0.4
2014-Jul-22 17:33N 52°15' E 006°47'4 4.0
2014-Jul-22 16:32N 52°15' E 006°41'2 1.9
2014-Jul-22 15:33N 52°14' E 006°38'5 5.4
2014-Jul-22 14:32N 52°12' E 006°30'6 5.6
2014-Jul-22 13:33N 52°10' E 006°21'20 3.9
2014-Jul-22 08:32N 51°57' E 005°57'4 3.6
2014-Jul-22 07:33N 51°58' E 005°52'9 4.3
2014-Jul-22 05:33N 51°57' E 005°38'5 5.2
2014-Jul-22 04:33N 51°59' E 005°30'3 3.4
2014-Jul-22 03:33N 51°59' E 005°25'0 0.0
2014-Jul-22 02:33N 51°59' E 005°25'0 0.0
2014-Jul-22 01:33N 51°59' E 005°25'0 0.0
2014-Jul-22 00:33N 51°59' E 005°25'0 0.0
2014-Jul-21 23:33N 51°59' E 005°25'0 0.0
2014-Jul-21 22:33N 51°59' E 005°25'0 0.0
2014-Jul-21 21:33N 51°59' E 005°25'0 0.0
2014-Jul-21 20:33N 51°59' E 005°25'0 0.0
2014-Jul-21 20:18N 51°59' E 005°25'0 0.0
2014-Jul-21 19:33N 51°59' E 005°25'1 1.1
2014-Jul-21 18:33N 51°58' E 005°23'5 4.6
2014-Jul-21 17:33N 51°58' E 005°16'4 4.4
2014-Jul-21 16:33N 51°59' E 005°09'3 3.0
2014-Jul-21 15:33N 51°60' E 005°04'5 5.4
2014-Jul-21 14:33N 51°57' E 004°56'6 5.9
2014-Jul-21 13:33N 51°55' E 004°47'6 6.2
2014-Jul-21 12:33N 51°53' E 004°38'6 6.4
2014-Jul-21 11:33N 51°54' E 004°27'6 5.6
2014-Jul-21 10:33N 51°52' E 004°19'7 7.4
2014-Jul-21 09:33N 51°56' E 004°09'2 1.7
2014-Jul-21 08:33N 51°57' E 004°07'0 0.0
2014-Jul-21 07:33N 51°57' E 004°07'0 0.0
2014-Jul-21 06:33N 51°57' E 004°07'0 0.0
2014-Jul-21 05:33N 51°57' E 004°07'0 0.2
2014-Jul-21 04:33N 51°57' E 004°07'0 0.0
2014-Jul-21 03:33N 51°57' E 004°07'0 0.0
2014-Jul-21 02:33N 51°57' E 004°07'0 0.0
2014-Jul-21 01:33N 51°57' E 004°07'0 0.0
2014-Jul-21 00:33N 51°57' E 004°07'0 0.0
2014-Jul-20 23:33N 51°57' E 004°07'0 0.0
2014-Jul-20 22:33N 51°57' E 004°07'0 0.0
2014-Jul-20 21:33N 51°57' E 004°07'0 0.0
2014-Jul-20 20:33N 51°57' E 004°07'0 0.0
2014-Jul-20 19:33N 51°57' E 004°07'0 0.0
2014-Jul-20 18:33N 51°57' E 004°07'0 0.0
2014-Jul-20 17:33N 51°57' E 004°07'0 0.0
2014-Jul-20 16:33N 51°57' E 004°07'2 1.6
2014-Jul-20 15:33N 51°56' E 004°09'5 5.0
2014-Jul-20 14:33N 51°52' E 004°15'9 9.3
2014-Jul-20 13:33N 51°50' E 004°29'8 8.2
2014-Jul-20 12:33N 51°49' E 004°42'7 7.4
2014-Jul-20 11:33N 51°50' E 004°54'8 8.0
2014-Jul-20 10:33N 51°49' E 005°07'8 8.3
2014-Jul-20 09:33N 51°48' E 005°21'8 8.2
2014-Jul-20 08:33N 51°53' E 005°31'9 8.7
2014-Jul-20 07:31N 51°53' E 005°46'  

Dump ship's entire track history